Share

Kotzebue, AK

Wien Memorial (PAOT) Elev 16 ft | 66.88 °N, 162.60 °W | Change Station

Current weather conditions updated 52 minutes ago

Clear
Clear
30 °F
Feels Like 22 °F
N
9
Wind Variable Wind from NE
Sunrise 6:56 AM
Sunset 10:45 PM
Moon Waning Gibbous

Today is forecast to be Cooler than yesterday.

Pressure 29.76 in
Visibility 10.0 miles
Clouds Clear
Windchill 22 °F
Dew Point 21 °F
Humidity 69%
Rainfall 0.00 in
Snow Depth Not available.
UV 0 out of 16
Pollen Not available.
Air Quality Not available.
Flu Activity Sporadic
METAR PAOT 170853Z 04008KT 10SM CLR M01/M06 A2976 RMK AO2 SLP078 T10111061 400221061 56010

More Conditions Fewer Conditions

Pressure 29.76 in
Visibility 10.0 miles
Clouds Clear
Windchill 22 °F
Dew Point 21 °F
Humidity 69%
Rainfall 0.00 in
Snow Depth Not available.
UV 0 out of 16
Pollen Not available.
Air Quality Not available.
Flu Activity Sporadic
METAR PAOT 170853Z 04008KT 10SM CLR M01/M06 A2976 RMK AO2 SLP078 T10111061 400221061 56010

More Conditions Fewer Conditions

10-Day Forecast

Almanac

Astronomy

Apr. 17, 2014 Rise Set
Actual Time 6:56 AM AKDT 10:45 PM AKDT
Civil Twilight 5:49 AM AKDT 11:53 PM AKDT
Nautical Twilight 3:41 AM AKDT 2:16 AM AKDT
Astronomical Twilight Sun does not rise Sun does not rise
Moon 1:31 AM AKDT 7:41 AM AKDT
Length of Visible Light 18h 04m
Length of Day
15h 49m
Tomorrow will be 7m 47s longer.
Waning Gibbous, 95% of the Moon is Illuminated
Today
Waning Gibbous
Apr 22
Last Quarter
Apr 29
New
May 6
First Quarter
May 14
Full

Today's Extremes

State Highs State Lows

Community

  • Sunset over the Bay
    Sunset over the Bay
  • symphony in blue....
    symphony in blue....
  • Dawn Surprise
    Dawn Surprise
  • Yucca delight
    Yucca delight
  • Sunset inside of the Ocean
    Sunset inside of the Ocean

WunderPhotos

Upload Photos

1,701,899 photos uploaded!

WunderBlogs® & News

Nearby

Snow Depth

Station Depth Elevation
Pargon Creek 4 in 300 ft
Rocky Point 7 in 500 ft
Gobblers Knob 9 in 2030 ft
Coldfoot 27 in 1040 ft
Atigun Pass 37 in 4800 ft

Coastal Water Temperatures

Place Temperature
No Stations Reporting

Earthquake Activity

City Distance Mag. Time & Date
No recent earthquake activity has been reported nearby.
Minimum magnitude displayed is 2.5.

Nearby Weather Stations

There are no personal weather stations in this area.

What do you think?

We're not finished. Please let us know what you like, what you don't like, and what you are still missing.